sensor_id;sensor_type;location;lat;lon;timestamp;P1;durP1;ratioP1;P2;durP2;ratioP2
21239;SDS011;10778;48.962;9.018;2022-12-07T00:01:12;12.68;;;8.68;;
21239;SDS011;10778;48.962;9.018;2022-12-07T00:03:50;13.20;;;8.80;;
21239;SDS011;10778;48.962;9.018;2022-12-07T00:06:18;12.27;;;8.27;;
21239;SDS011;10778;48.962;9.018;2022-12-07T00:08:45;13.15;;;8.70;;
21239;SDS011;10778;48.962;9.018;2022-12-07T00:11:13;12.27;;;8.70;;
21239;SDS011;10778;48.962;9.018;2022-12-07T00:13:41;11.27;;;8.02;;
21239;SDS011;10778;48.962;9.018;2022-12-07T00:16:12;11.73;;;8.10;;
21239;SDS011;10778;48.962;9.018;2022-12-07T00:18:43;9.75;;;7.45;;
21239;SDS011;10778;48.962;9.018;2022-12-07T00:21:14;10.35;;;7.95;;
21239;SDS011;10778;48.962;9.018;2022-12-07T00:23:44;11.20;;;8.05;;
21239;SDS011;10778;48.962;9.018;2022-12-07T00:28:40;11.32;;;7.88;;
21239;SDS011;10778;48.962;9.018;2022-12-07T00:31:07;12.75;;;8.43;;
21239;SDS011;10778;48.962;9.018;2022-12-07T00:33:37;11.18;;;8.25;;
21239;SDS011;10778;48.962;9.018;2022-12-07T00:36:08;13.15;;;8.60;;
21239;SDS011;10778;48.962;9.018;2022-12-07T00:38:37;11.20;;;8.23;;
21239;SDS011;10778;48.962;9.018;2022-12-07T00:41:09;11.20;;;8.13;;
21239;SDS011;10778;48.962;9.018;2022-12-07T00:43:37;10.32;;;7.85;;
21239;SDS011;10778;48.962;9.018;2022-12-07T00:46:04;11.23;;;7.82;;
21239;SDS011;10778;48.962;9.018;2022-12-07T00:48:30;12.32;;;8.30;;
21239;SDS011;10778;48.962;9.018;2022-12-07T00:50:56;12.45;;;8.73;;
21239;SDS011;10778;48.962;9.018;2022-12-07T00:53:23;12.45;;;8.45;;
21239;SDS011;10778;48.962;9.018;2022-12-07T00:55:49;11.93;;;8.77;;
21239;SDS011;10778;48.962;9.018;2022-12-07T00:58:15;12.73;;;8.63;;
21239;SDS011;10778;48.962;9.018;2022-12-07T01:00:42;12.05;;;8.27;;
21239;SDS011;10778;48.962;9.018;2022-12-07T01:03:09;11.13;;;7.88;;
21239;SDS011;10778;48.962;9.018;2022-12-07T01:05:38;14.32;;;8.85;;
21239;SDS011;10778;48.962;9.018;2022-12-07T01:08:05;12.15;;;8.95;;
21239;SDS011;10778;48.962;9.018;2022-12-07T01:10:32;13.15;;;9.25;;
21239;SDS011;10778;48.962;9.018;2022-12-07T01:12:58;11.85;;;8.52;;
21239;SDS011;10778;48.962;9.018;2022-12-07T01:15:25;12.95;;;8.93;;
21239;SDS011;10778;48.962;9.018;2022-12-07T01:17:51;11.23;;;8.35;;
21239;SDS011;10778;48.962;9.018;2022-12-07T01:20:17;11.80;;;8.73;;
21239;SDS011;10778;48.962;9.018;2022-12-07T01:22:43;12.80;;;8.55;;
21239;SDS011;10778;48.962;9.018;2022-12-07T01:25:10;12.82;;;8.57;;
21239;SDS011;10778;48.962;9.018;2022-12-07T01:27:37;12.10;;;8.73;;
21239;SDS011;10778;48.962;9.018;2022-12-07T01:30:04;11.35;;;8.25;;
21239;SDS011;10778;48.962;9.018;2022-12-07T01:32:32;11.80;;;8.60;;
21239;SDS011;10778;48.962;9.018;2022-12-07T01:34:58;11.77;;;8.63;;
21239;SDS011;10778;48.962;9.018;2022-12-07T01:37:24;12.30;;;8.73;;
21239;SDS011;10778;48.962;9.018;2022-12-07T01:39:50;12.52;;;8.68;;
21239;SDS011;10778;48.962;9.018;2022-12-07T01:42:17;13.93;;;9.05;;
21239;SDS011;10778;48.962;9.018;2022-12-07T01:47:51;12.70;;;9.10;;
21239;SDS011;10778;48.962;9.018;2022-12-07T01:50:21;13.50;;;9.45;;
21239;SDS011;10778;48.962;9.018;2022-12-07T01:52:51;14.20;;;9.02;;
21239;SDS011;10778;48.962;9.018;2022-12-07T01:55:21;12.80;;;9.27;;
21239;SDS011;10778;48.962;9.018;2022-12-07T01:57:49;15.02;;;9.82;;
21239;SDS011;10778;48.962;9.018;2022-12-07T02:00:17;12.45;;;9.48;;
21239;SDS011;10778;48.962;9.018;2022-12-07T02:02:48;12.13;;;8.80;;
21239;SDS011;10778;48.962;9.018;2022-12-07T02:05:19;13.05;;;9.07;;
21239;SDS011;10778;48.962;9.018;2022-12-07T02:07:46;13.85;;;9.65;;
21239;SDS011;10778;48.962;9.018;2022-12-07T02:10:14;14.48;;;9.60;;
21239;SDS011;10778;48.962;9.018;2022-12-07T02:12:43;13.18;;;9.93;;
21239;SDS011;10778;48.962;9.018;2022-12-07T02:15:12;14.18;;;9.73;;
21239;SDS011;10778;48.962;9.018;2022-12-07T02:17:45;14.73;;;9.43;;
21239;SDS011;10778;48.962;9.018;2022-12-07T02:20:35;13.60;;;9.55;;
21239;SDS011;10778;48.962;9.018;2022-12-07T02:25:55;14.25;;;9.50;;
21239;SDS011;10778;48.962;9.018;2022-12-07T02:28:36;14.60;;;9.48;;
21239;SDS011;10778;48.962;9.018;2022-12-07T02:31:22;15.88;;;9.65;;
21239;SDS011;10778;48.962;9.018;2022-12-07T02:33:54;14.43;;;10.02;;
21239;SDS011;10778;48.962;9.018;2022-12-07T02:36:29;15.18;;;9.90;;
21239;SDS011;10778;48.962;9.018;2022-12-07T02:41:41;15.40;;;10.38;;
21239;SDS011;10778;48.962;9.018;2022-12-07T02:44:19;13.85;;;9.77;;
21239;SDS011;10778;48.962;9.018;2022-12-07T02:46:56;15.75;;;10.68;;
21239;SDS011;10778;48.962;9.018;2022-12-07T02:49:27;14.52;;;10.05;;
21239;SDS011;10778;48.962;9.018;2022-12-07T02:51:55;15.50;;;10.50;;
21239;SDS011;10778;48.962;9.018;2022-12-07T02:54:22;13.98;;;10.10;;
21239;SDS011;10778;48.962;9.018;2022-12-07T02:59:46;15.68;;;10.30;;
21239;SDS011;10778;48.962;9.018;2022-12-07T03:18:13;14.55;;;9.68;;
21239;SDS011;10778;48.962;9.018;2022-12-07T03:20:43;14.02;;;9.50;;
21239;SDS011;10778;48.962;9.018;2022-12-07T03:23:12;12.70;;;8.77;;
21239;SDS011;10778;48.962;9.018;2022-12-07T03:25:41;13.13;;;9.73;;
21239;SDS011;10778;48.962;9.018;2022-12-07T03:28:09;14.68;;;10.05;;
21239;SDS011;10778;48.962;9.018;2022-12-07T03:30:42;14.38;;;9.23;;
21239;SDS011;10778;48.962;9.018;2022-12-07T03:33:29;13.90;;;9.60;;
21239;SDS011;10778;48.962;9.018;2022-12-07T03:36:11;14.52;;;9.48;;
21239;SDS011;10778;48.962;9.018;2022-12-07T03:41:29;14.80;;;10.02;;
21239;SDS011;10778;48.962;9.018;2022-12-07T03:43:58;16.55;;;10.07;;
21239;SDS011;10778;48.962;9.018;2022-12-07T03:49:18;15.43;;;10.02;;
21239;SDS011;10778;48.962;9.018;2022-12-07T03:57:28;15.75;;;10.32;;
21239;SDS011;10778;48.962;9.018;2022-12-07T03:59:57;15.90;;;10.48;;
21239;SDS011;10778;48.962;9.018;2022-12-07T04:02:24;15.70;;;10.32;;
21239;SDS011;10778;48.962;9.018;2022-12-07T04:04:53;13.60;;;9.38;;
21239;SDS011;10778;48.962;9.018;2022-12-07T04:07:20;15.65;;;9.82;;
21239;SDS011;10778;48.962;9.018;2022-12-07T04:09:46;14.73;;;10.68;;
21239;SDS011;10778;48.962;9.018;2022-12-07T04:12:12;15.02;;;10.52;;
21239;SDS011;10778;48.962;9.018;2022-12-07T04:14:38;14.65;;;10.07;;
21239;SDS011;10778;48.962;9.018;2022-12-07T04:17:04;15.05;;;10.38;;
21239;SDS011;10778;48.962;9.018;2022-12-07T04:19:31;18.02;;;11.32;;
21239;SDS011;10778;48.962;9.018;2022-12-07T04:22:00;17.63;;;11.32;;
21239;SDS011;10778;48.962;9.018;2022-12-07T04:24:27;17.10;;;11.18;;
21239;SDS011;10778;48.962;9.018;2022-12-07T04:26:53;14.73;;;10.38;;
21239;SDS011;10778;48.962;9.018;2022-12-07T04:29:20;15.98;;;10.57;;
21239;SDS011;10778;48.962;9.018;2022-12-07T04:31:47;16.30;;;10.77;;
21239;SDS011;10778;48.962;9.018;2022-12-07T04:34:13;17.02;;;10.75;;
21239;SDS011;10778;48.962;9.018;2022-12-07T04:36:39;16.52;;;10.95;;
21239;SDS011;10778;48.962;9.018;2022-12-07T04:39:07;16.17;;;10.52;;
21239;SDS011;10778;48.962;9.018;2022-12-07T04:41:44;16.25;;;10.30;;
21239;SDS011;10778;48.962;9.018;2022-12-07T04:44:11;16.08;;;11.13;;
21239;SDS011;10778;48.962;9.018;2022-12-07T04:46:40;15.75;;;10.68;;
21239;SDS011;10778;48.962;9.018;2022-12-07T04:49:07;15.80;;;11.02;;
21239;SDS011;10778;48.962;9.018;2022-12-07T04:51:33;16.20;;;10.68;;
21239;SDS011;10778;48.962;9.018;2022-12-07T04:53:59;14.55;;;9.85;;
21239;SDS011;10778;48.962;9.018;2022-12-07T04:56:25;15.88;;;10.65;;
21239;SDS011;10778;48.962;9.018;2022-12-07T04:58:52;15.23;;;10.27;;
21239;SDS011;10778;48.962;9.018;2022-12-07T05:01:20;16.23;;;10.55;;
21239;SDS011;10778;48.962;9.018;2022-12-07T05:03:47;16.50;;;10.43;;
21239;SDS011;10778;48.962;9.018;2022-12-07T05:06:13;17.48;;;10.98;;
21239;SDS011;10778;48.962;9.018;2022-12-07T05:08:40;15.60;;;10.73;;
21239;SDS011;10778;48.962;9.018;2022-12-07T05:11:07;15.32;;;10.43;;
21239;SDS011;10778;48.962;9.018;2022-12-07T05:13:34;15.77;;;10.02;;
21239;SDS011;10778;48.962;9.018;2022-12-07T05:16:01;17.30;;;10.75;;
21239;SDS011;10778;48.962;9.018;2022-12-07T05:18:27;15.88;;;9.93;;
21239;SDS011;10778;48.962;9.018;2022-12-07T05:20:53;15.95;;;10.38;;
21239;SDS011;10778;48.962;9.018;2022-12-07T05:23:19;15.90;;;9.98;;
21239;SDS011;10778;48.962;9.018;2022-12-07T05:25:46;15.07;;;10.07;;
21239;SDS011;10778;48.962;9.018;2022-12-07T05:28:12;14.15;;;9.63;;
21239;SDS011;10778;48.962;9.018;2022-12-07T05:30:38;15.05;;;10.05;;
21239;SDS011;10778;48.962;9.018;2022-12-07T05:33:05;15.23;;;9.70;;
21239;SDS011;10778;48.962;9.018;2022-12-07T05:35:31;15.38;;;9.98;;
21239;SDS011;10778;48.962;9.018;2022-12-07T05:37:57;16.02;;;10.65;;
21239;SDS011;10778;48.962;9.018;2022-12-07T05:40:24;14.93;;;10.27;;
21239;SDS011;10778;48.962;9.018;2022-12-07T05:42:50;12.93;;;9.52;;
21239;SDS011;10778;48.962;9.018;2022-12-07T05:45:16;16.17;;;10.85;;
21239;SDS011;10778;48.962;9.018;2022-12-07T05:47:42;14.60;;;10.02;;
21239;SDS011;10778;48.962;9.018;2022-12-07T05:50:08;18.10;;;10.30;;
21239;SDS011;10778;48.962;9.018;2022-12-07T05:52:34;13.18;;;9.63;;
21239;SDS011;10778;48.962;9.018;2022-12-07T05:55:00;13.45;;;9.38;;
21239;SDS011;10778;48.962;9.018;2022-12-07T05:57:26;16.30;;;10.88;;
21239;SDS011;10778;48.962;9.018;2022-12-07T05:59:52;14.68;;;9.95;;
21239;SDS011;10778;48.962;9.018;2022-12-07T06:02:18;16.40;;;10.68;;
21239;SDS011;10778;48.962;9.018;2022-12-07T06:04:45;15.50;;;10.27;;
21239;SDS011;10778;48.962;9.018;2022-12-07T06:07:12;16.70;;;11.07;;
21239;SDS011;10778;48.962;9.018;2022-12-07T06:09:40;16.67;;;11.30;;
21239;SDS011;10778;48.962;9.018;2022-12-07T06:12:06;16.67;;;11.25;;
21239;SDS011;10778;48.962;9.018;2022-12-07T06:14:53;18.40;;;11.32;;
21239;SDS011;10778;48.962;9.018;2022-12-07T06:17:19;19.80;;;11.27;;
21239;SDS011;10778;48.962;9.018;2022-12-07T06:19:45;18.52;;;11.38;;
21239;SDS011;10778;48.962;9.018;2022-12-07T06:22:11;17.10;;;11.70;;
21239;SDS011;10778;48.962;9.018;2022-12-07T06:24:38;18.10;;;11.43;;
21239;SDS011;10778;48.962;9.018;2022-12-07T06:27:04;17.17;;;11.55;;
21239;SDS011;10778;48.962;9.018;2022-12-07T06:29:31;16.55;;;11.30;;
21239;SDS011;10778;48.962;9.018;2022-12-07T06:31:58;20.10;;;11.00;;
21239;SDS011;10778;48.962;9.018;2022-12-07T06:34:24;18.20;;;11.02;;
21239;SDS011;10778;48.962;9.018;2022-12-07T06:36:51;16.73;;;10.93;;
21239;SDS011;10778;48.962;9.018;2022-12-07T06:39:19;15.70;;;10.20;;
21239;SDS011;10778;48.962;9.018;2022-12-07T06:41:46;18.48;;;11.15;;
21239;SDS011;10778;48.962;9.018;2022-12-07T06:44:13;15.48;;;10.63;;
21239;SDS011;10778;48.962;9.018;2022-12-07T06:46:39;19.38;;;11.20;;
21239;SDS011;10778;48.962;9.018;2022-12-07T06:49:05;17.98;;;11.18;;
21239;SDS011;10778;48.962;9.018;2022-12-07T06:51:32;15.65;;;10.93;;
21239;SDS011;10778;48.962;9.018;2022-12-07T06:54:02;17.85;;;11.52;;
21239;SDS011;10778;48.962;9.018;2022-12-07T06:56:29;15.65;;;10.32;;
21239;SDS011;10778;48.962;9.018;2022-12-07T06:58:55;16.77;;;10.77;;
21239;SDS011;10778;48.962;9.018;2022-12-07T07:01:21;14.82;;;9.93;;
21239;SDS011;10778;48.962;9.018;2022-12-07T07:03:47;15.60;;;10.10;;
21239;SDS011;10778;48.962;9.018;2022-12-07T07:06:14;14.18;;;9.20;;
21239;SDS011;10778;48.962;9.018;2022-12-07T07:08:40;13.95;;;9.88;;
21239;SDS011;10778;48.962;9.018;2022-12-07T07:11:07;16.63;;;10.23;;
21239;SDS011;10778;48.962;9.018;2022-12-07T07:13:34;15.23;;;9.60;;
21239;SDS011;10778;48.962;9.018;2022-12-07T07:16:01;17.05;;;10.23;;
21239;SDS011;10778;48.962;9.018;2022-12-07T07:18:27;15.48;;;9.15;;
21239;SDS011;10778;48.962;9.018;2022-12-07T07:20:54;14.98;;;9.80;;
21239;SDS011;10778;48.962;9.018;2022-12-07T07:23:21;15.32;;;9.82;;
21239;SDS011;10778;48.962;9.018;2022-12-07T07:25:47;16.73;;;10.48;;
21239;SDS011;10778;48.962;9.018;2022-12-07T07:28:14;15.20;;;9.45;;
21239;SDS011;10778;48.962;9.018;2022-12-07T07:30:40;18.20;;;9.57;;
21239;SDS011;10778;48.962;9.018;2022-12-07T07:33:07;16.02;;;10.55;;
21239;SDS011;10778;48.962;9.018;2022-12-07T07:35:34;16.45;;;10.40;;
21239;SDS011;10778;48.962;9.018;2022-12-07T07:38:00;15.07;;;9.95;;
21239;SDS011;10778;48.962;9.018;2022-12-07T07:40:27;25.23;;;11.98;;
21239;SDS011;10778;48.962;9.018;2022-12-07T07:42:54;17.52;;;11.32;;
21239;SDS011;10778;48.962;9.018;2022-12-07T07:45:22;15.55;;;9.50;;
21239;SDS011;10778;48.962;9.018;2022-12-07T07:47:49;13.38;;;8.70;;
21239;SDS011;10778;48.962;9.018;2022-12-07T07:50:15;12.85;;;8.65;;
21239;SDS011;10778;48.962;9.018;2022-12-07T07:52:42;13.30;;;9.05;;
21239;SDS011;10778;48.962;9.018;2022-12-07T07:55:09;15.07;;;9.15;;
21239;SDS011;10778;48.962;9.018;2022-12-07T07:57:36;14.65;;;8.88;;
21239;SDS011;10778;48.962;9.018;2022-12-07T08:00:03;13.02;;;8.73;;
21239;SDS011;10778;48.962;9.018;2022-12-07T08:02:38;13.25;;;8.70;;
21239;SDS011;10778;48.962;9.018;2022-12-07T08:05:05;12.40;;;8.40;;
21239;SDS011;10778;48.962;9.018;2022-12-07T08:07:31;12.18;;;8.45;;
21239;SDS011;10778;48.962;9.018;2022-12-07T08:09:57;17.42;;;9.35;;
21239;SDS011;10778;48.962;9.018;2022-12-07T08:12:23;14.10;;;9.48;;
21239;SDS011;10778;48.962;9.018;2022-12-07T08:14:49;12.82;;;9.05;;
21239;SDS011;10778;48.962;9.018;2022-12-07T08:17:15;15.75;;;9.82;;
21239;SDS011;10778;48.962;9.018;2022-12-07T08:19:41;22.80;;;14.27;;
21239;SDS011;10778;48.962;9.018;2022-12-07T08:22:07;18.13;;;11.38;;
21239;SDS011;10778;48.962;9.018;2022-12-07T08:24:34;15.05;;;9.48;;
21239;SDS011;10778;48.962;9.018;2022-12-07T08:27:01;13.02;;;8.95;;
21239;SDS011;10778;48.962;9.018;2022-12-07T08:29:28;12.45;;;8.73;;
21239;SDS011;10778;48.962;9.018;2022-12-07T08:31:54;11.95;;;8.25;;
21239;SDS011;10778;48.962;9.018;2022-12-07T08:34:20;12.25;;;8.73;;
21239;SDS011;10778;48.962;9.018;2022-12-07T08:36:47;13.48;;;8.38;;
21239;SDS011;10778;48.962;9.018;2022-12-07T08:39:12;12.45;;;8.57;;
21239;SDS011;10778;48.962;9.018;2022-12-07T08:41:38;14.45;;;9.85;;
21239;SDS011;10778;48.962;9.018;2022-12-07T08:44:05;13.15;;;8.90;;
21239;SDS011;10778;48.962;9.018;2022-12-07T08:46:32;14.27;;;9.27;;
21239;SDS011;10778;48.962;9.018;2022-12-07T08:49:04;14.23;;;8.65;;
21239;SDS011;10778;48.962;9.018;2022-12-07T08:51:33;12.93;;;8.73;;
21239;SDS011;10778;48.962;9.018;2022-12-07T08:54:00;11.45;;;8.05;;
21239;SDS011;10778;48.962;9.018;2022-12-07T08:56:29;13.57;;;8.40;;
21239;SDS011;10778;48.962;9.018;2022-12-07T08:58:55;10.80;;;7.50;;
21239;SDS011;10778;48.962;9.018;2022-12-07T09:01:22;12.85;;;8.65;;
21239;SDS011;10778;48.962;9.018;2022-12-07T09:03:48;13.70;;;7.70;;
21239;SDS011;10778;48.962;9.018;2022-12-07T09:06:14;12.57;;;8.40;;
21239;SDS011;10778;48.962;9.018;2022-12-07T09:08:42;11.38;;;7.40;;
21239;SDS011;10778;48.962;9.018;2022-12-07T09:11:11;11.50;;;7.10;;
21239;SDS011;10778;48.962;9.018;2022-12-07T09:13:37;10.63;;;7.03;;
21239;SDS011;10778;48.962;9.018;2022-12-07T09:16:03;10.60;;;7.72;;
21239;SDS011;10778;48.962;9.018;2022-12-07T09:18:30;10.70;;;7.57;;
21239;SDS011;10778;48.962;9.018;2022-12-07T09:20:56;8.68;;;5.85;;
21239;SDS011;10778;48.962;9.018;2022-12-07T09:23:22;8.10;;;5.30;;
21239;SDS011;10778;48.962;9.018;2022-12-07T09:25:48;11.15;;;5.78;;
21239;SDS011;10778;48.962;9.018;2022-12-07T09:28:14;12.75;;;7.38;;
21239;SDS011;10778;48.962;9.018;2022-12-07T09:30:47;10.63;;;6.85;;
21239;SDS011;10778;48.962;9.018;2022-12-07T09:33:14;9.38;;;6.07;;
21239;SDS011;10778;48.962;9.018;2022-12-07T09:35:44;8.32;;;5.15;;
21239;SDS011;10778;48.962;9.018;2022-12-07T09:38:11;7.60;;;4.90;;
21239;SDS011;10778;48.962;9.018;2022-12-07T09:40:38;6.80;;;4.82;;
21239;SDS011;10778;48.962;9.018;2022-12-07T09:43:04;6.57;;;4.70;;
21239;SDS011;10778;48.962;9.018;2022-12-07T09:45:32;6.43;;;4.18;;
21239;SDS011;10778;48.962;9.018;2022-12-07T09:48:02;6.47;;;4.30;;
21239;SDS011;10778;48.962;9.018;2022-12-07T09:50:29;8.25;;;4.10;;
21239;SDS011;10778;48.962;9.018;2022-12-07T09:53:03;7.22;;;4.13;;
21239;SDS011;10778;48.962;9.018;2022-12-07T09:55:34;7.22;;;4.45;;
21239;SDS011;10778;48.962;9.018;2022-12-07T09:58:02;5.60;;;4.05;;
21239;SDS011;10778;48.962;9.018;2022-12-07T10:00:28;8.77;;;4.70;;
21239;SDS011;10778;48.962;9.018;2022-12-07T10:02:56;6.32;;;4.43;;
21239;SDS011;10778;48.962;9.018;2022-12-07T10:05:29;6.90;;;5.03;;
21239;SDS011;10778;48.962;9.018;2022-12-07T10:08:00;8.38;;;5.28;;
21239;SDS011;10778;48.962;9.018;2022-12-07T10:10:29;8.48;;;5.35;;
21239;SDS011;10778;48.962;9.018;2022-12-07T10:13:01;8.15;;;5.50;;
21239;SDS011;10778;48.962;9.018;2022-12-07T10:23:27;7.70;;;5.75;;
21239;SDS011;10778;48.962;9.018;2022-12-07T10:25:53;7.57;;;5.80;;
21239;SDS011;10778;48.962;9.018;2022-12-07T10:28:20;9.13;;;6.03;;
21239;SDS011;10778;48.962;9.018;2022-12-07T10:30:49;7.32;;;5.43;;
21239;SDS011;10778;48.962;9.018;2022-12-07T10:35:54;9.45;;;6.13;;
21239;SDS011;10778;48.962;9.018;2022-12-07T10:38:20;8.88;;;6.32;;
21239;SDS011;10778;48.962;9.018;2022-12-07T10:40:46;10.77;;;6.70;;
21239;SDS011;10778;48.962;9.018;2022-12-07T10:46:04;10.82;;;6.97;;
21239;SDS011;10778;48.962;9.018;2022-12-07T10:51:57;12.50;;;8.02;;
21239;SDS011;10778;48.962;9.018;2022-12-07T10:57:20;13.55;;;8.35;;
21239;SDS011;10778;48.962;9.018;2022-12-07T11:00:00;11.88;;;7.57;;
21239;SDS011;10778;48.962;9.018;2022-12-07T11:05:31;12.07;;;8.07;;
21239;SDS011;10778;48.962;9.018;2022-12-07T11:08:21;12.15;;;7.43;;
21239;SDS011;10778;48.962;9.018;2022-12-07T11:21:58;12.25;;;7.82;;
21239;SDS011;10778;48.962;9.018;2022-12-07T11:24:35;13.13;;;8.63;;
21239;SDS011;10778;48.962;9.018;2022-12-07T11:29:40;11.00;;;7.90;;
21239;SDS011;10778;48.962;9.018;2022-12-07T11:37:59;10.85;;;7.82;;
21239;SDS011;10778;48.962;9.018;2022-12-07T11:40:34;13.38;;;8.68;;
21239;SDS011;10778;48.962;9.018;2022-12-07T11:45:42;10.55;;;7.47;;
21239;SDS011;10778;48.962;9.018;2022-12-07T11:51:06;12.15;;;8.38;;
21239;SDS011;10778;48.962;9.018;2022-12-07T11:53:51;11.95;;;8.27;;
21239;SDS011;10778;48.962;9.018;2022-12-07T11:56:21;13.55;;;8.40;;
21239;SDS011;10778;48.962;9.018;2022-12-07T12:07:10;13.05;;;8.13;;
21239;SDS011;10778;48.962;9.018;2022-12-07T12:09:50;13.82;;;9.10;;
21239;SDS011;10778;48.962;9.018;2022-12-07T12:12:24;14.02;;;8.63;;
21239;SDS011;10778;48.962;9.018;2022-12-07T12:18:03;13.30;;;9.25;;
21239;SDS011;10778;48.962;9.018;2022-12-07T12:20:52;12.90;;;8.63;;
21239;SDS011;10778;48.962;9.018;2022-12-07T12:23:22;15.45;;;8.82;;
21239;SDS011;10778;48.962;9.018;2022-12-07T12:25:56;14.63;;;9.15;;
21239;SDS011;10778;48.962;9.018;2022-12-07T12:33:46;13.23;;;8.50;;
21239;SDS011;10778;48.962;9.018;2022-12-07T12:41:50;15.05;;;9.88;;
21239;SDS011;10778;48.962;9.018;2022-12-07T12:46:53;16.30;;;10.60;;
21239;SDS011;10778;48.962;9.018;2022-12-07T12:51:49;18.83;;;11.63;;
21239;SDS011;10778;48.962;9.018;2022-12-07T12:54:20;19.88;;;12.27;;
21239;SDS011;10778;48.962;9.018;2022-12-07T13:02:09;21.20;;;11.80;;
21239;SDS011;10778;48.962;9.018;2022-12-07T13:15:56;18.40;;;11.50;;
21239;SDS011;10778;48.962;9.018;2022-12-07T13:18:37;17.77;;;11.30;;
21239;SDS011;10778;48.962;9.018;2022-12-07T13:29:07;16.65;;;11.55;;
21239;SDS011;10778;48.962;9.018;2022-12-07T13:31:36;18.23;;;11.75;;
21239;SDS011;10778;48.962;9.018;2022-12-07T13:37:46;21.33;;;12.52;;
21239;SDS011;10778;48.962;9.018;2022-12-07T13:39:55;17.25;;;11.50;;
21239;SDS011;10778;48.962;9.018;2022-12-07T13:44:57;19.45;;;11.23;;
21239;SDS011;10778;48.962;9.018;2022-12-07T13:50:01;17.05;;;11.45;;
21239;SDS011;10778;48.962;9.018;2022-12-07T13:52:47;16.95;;;11.65;;
21239;SDS011;10778;48.962;9.018;2022-12-07T13:55:15;17.27;;;11.32;;
21239;SDS011;10778;48.962;9.018;2022-12-07T13:57:43;19.23;;;10.98;;
21239;SDS011;10778;48.962;9.018;2022-12-07T14:00:19;17.80;;;11.95;;
21239;SDS011;10778;48.962;9.018;2022-12-07T14:05:42;21.35;;;12.82;;
21239;SDS011;10778;48.962;9.018;2022-12-07T14:10:39;19.35;;;11.98;;
21239;SDS011;10778;48.962;9.018;2022-12-07T14:16:01;20.20;;;12.68;;
21239;SDS011;10778;48.962;9.018;2022-12-07T14:18:39;19.90;;;12.80;;
21239;SDS011;10778;48.962;9.018;2022-12-07T14:21:13;21.02;;;12.55;;
21239;SDS011;10778;48.962;9.018;2022-12-07T14:23:42;20.45;;;12.82;;
21239;SDS011;10778;48.962;9.018;2022-12-07T14:26:12;18.90;;;12.55;;
21239;SDS011;10778;48.962;9.018;2022-12-07T14:28:40;19.63;;;12.48;;
21239;SDS011;10778;48.962;9.018;2022-12-07T14:31:18;21.35;;;13.70;;
21239;SDS011;10778;48.962;9.018;2022-12-07T14:33:49;22.35;;;14.57;;
21239;SDS011;10778;48.962;9.018;2022-12-07T14:36:15;22.30;;;13.93;;
21239;SDS011;10778;48.962;9.018;2022-12-07T14:38:41;23.35;;;14.02;;
21239;SDS011;10778;48.962;9.018;2022-12-07T14:41:12;25.90;;;15.00;;
21239;SDS011;10778;48.962;9.018;2022-12-07T14:44:00;24.00;;;14.88;;
21239;SDS011;10778;48.962;9.018;2022-12-07T14:46:26;26.65;;;15.93;;
21239;SDS011;10778;48.962;9.018;2022-12-07T14:48:52;26.98;;;15.57;;
21239;SDS011;10778;48.962;9.018;2022-12-07T14:51:18;30.75;;;16.33;;
21239;SDS011;10778;48.962;9.018;2022-12-07T14:53:46;26.40;;;16.35;;
21239;SDS011;10778;48.962;9.018;2022-12-07T14:56:14;29.38;;;16.60;;
21239;SDS011;10778;48.962;9.018;2022-12-07T14:58:40;28.50;;;16.75;;
21239;SDS011;10778;48.962;9.018;2022-12-07T15:01:06;30.45;;;17.58;;
21239;SDS011;10778;48.962;9.018;2022-12-07T15:03:32;29.40;;;17.55;;
21239;SDS011;10778;48.962;9.018;2022-12-07T15:06:00;27.00;;;16.25;;
21239;SDS011;10778;48.962;9.018;2022-12-07T15:08:26;28.80;;;16.50;;
21239;SDS011;10778;48.962;9.018;2022-12-07T15:10:52;28.42;;;16.70;;
21239;SDS011;10778;48.962;9.018;2022-12-07T15:13:18;28.40;;;17.15;;
21239;SDS011;10778;48.962;9.018;2022-12-07T15:16:04;27.38;;;15.88;;
21239;SDS011;10778;48.962;9.018;2022-12-07T15:18:33;28.08;;;16.45;;
21239;SDS011;10778;48.962;9.018;2022-12-07T15:20:59;25.88;;;16.00;;
21239;SDS011;10778;48.962;9.018;2022-12-07T15:23:25;24.92;;;16.08;;
21239;SDS011;10778;48.962;9.018;2022-12-07T15:25:51;29.55;;;16.65;;
21239;SDS011;10778;48.962;9.018;2022-12-07T15:28:17;25.35;;;15.90;;
21239;SDS011;10778;48.962;9.018;2022-12-07T15:30:43;26.27;;;15.80;;
21239;SDS011;10778;48.962;9.018;2022-12-07T15:33:10;26.80;;;18.05;;
21239;SDS011;10778;48.962;9.018;2022-12-07T15:35:40;26.20;;;17.42;;
21239;SDS011;10778;48.962;9.018;2022-12-07T15:38:06;31.00;;;16.17;;
21239;SDS011;10778;48.962;9.018;2022-12-07T15:40:33;25.45;;;16.73;;
21239;SDS011;10778;48.962;9.018;2022-12-07T15:43:01;27.67;;;17.75;;
21239;SDS011;10778;48.962;9.018;2022-12-07T15:45:27;27.88;;;16.55;;
21239;SDS011;10778;48.962;9.018;2022-12-07T15:47:53;26.15;;;15.88;;
21239;SDS011;10778;48.962;9.018;2022-12-07T15:50:21;26.98;;;16.55;;
21239;SDS011;10778;48.962;9.018;2022-12-07T15:52:47;28.15;;;17.40;;
21239;SDS011;10778;48.962;9.018;2022-12-07T15:55:14;27.33;;;17.00;;
21239;SDS011;10778;48.962;9.018;2022-12-07T15:57:40;24.95;;;16.00;;
21239;SDS011;10778;48.962;9.018;2022-12-07T16:00:07;25.30;;;16.45;;
21239;SDS011;10778;48.962;9.018;2022-12-07T16:02:35;25.48;;;15.80;;
21239;SDS011;10778;48.962;9.018;2022-12-07T16:05:02;26.92;;;15.75;;
21239;SDS011;10778;48.962;9.018;2022-12-07T16:07:28;24.42;;;14.70;;
21239;SDS011;10778;48.962;9.018;2022-12-07T16:09:54;25.77;;;16.42;;
21239;SDS011;10778;48.962;9.018;2022-12-07T16:12:20;28.10;;;16.25;;
21239;SDS011;10778;48.962;9.018;2022-12-07T16:14:46;34.08;;;18.70;;
21239;SDS011;10778;48.962;9.018;2022-12-07T16:17:12;31.40;;;18.20;;
21239;SDS011;10778;48.962;9.018;2022-12-07T16:19:38;34.95;;;20.55;;
21239;SDS011;10778;48.962;9.018;2022-12-07T16:22:04;35.78;;;21.35;;
21239;SDS011;10778;48.962;9.018;2022-12-07T16:24:31;25.02;;;15.95;;
21239;SDS011;10778;48.962;9.018;2022-12-07T16:26:57;25.25;;;15.60;;
21239;SDS011;10778;48.962;9.018;2022-12-07T16:29:23;26.88;;;16.05;;
21239;SDS011;10778;48.962;9.018;2022-12-07T16:31:50;30.13;;;16.88;;
21239;SDS011;10778;48.962;9.018;2022-12-07T16:34:17;31.63;;;18.52;;
21239;SDS011;10778;48.962;9.018;2022-12-07T16:36:43;36.25;;;18.95;;
21239;SDS011;10778;48.962;9.018;2022-12-07T16:39:09;35.13;;;18.50;;
21239;SDS011;10778;48.962;9.018;2022-12-07T16:41:36;38.38;;;19.13;;
21239;SDS011;10778;48.962;9.018;2022-12-07T16:44:06;36.40;;;18.65;;
21239;SDS011;10778;48.962;9.018;2022-12-07T16:46:33;34.90;;;17.73;;
21239;SDS011;10778;48.962;9.018;2022-12-07T16:49:01;34.10;;;18.20;;
21239;SDS011;10778;48.962;9.018;2022-12-07T16:51:28;30.88;;;18.08;;
21239;SDS011;10778;48.962;9.018;2022-12-07T16:53:54;31.50;;;17.52;;
21239;SDS011;10778;48.962;9.018;2022-12-07T16:56:21;31.65;;;17.27;;
21239;SDS011;10778;48.962;9.018;2022-12-07T16:58:47;28.08;;;17.17;;
21239;SDS011;10778;48.962;9.018;2022-12-07T17:01:21;38.42;;;19.73;;
21239;SDS011;10778;48.962;9.018;2022-12-07T17:03:48;39.15;;;19.52;;
21239;SDS011;10778;48.962;9.018;2022-12-07T17:06:19;41.50;;;20.13;;
21239;SDS011;10778;48.962;9.018;2022-12-07T17:08:50;42.55;;;20.63;;
21239;SDS011;10778;48.962;9.018;2022-12-07T17:11:18;42.38;;;20.60;;
21239;SDS011;10778;48.962;9.018;2022-12-07T17:13:46;38.45;;;20.23;;